createdAt,value
2018-11-22T00:00:33.106Z,0.9
2018-11-22T00:01:35.117Z,1
2018-11-22T00:02:37.420Z,1
2018-11-22T00:03:39.431Z,1
2018-11-22T00:04:41.438Z,0.9
2018-11-22T00:05:43.461Z,0.9
2018-11-22T00:06:45.463Z,0.9
2018-11-22T00:07:47.472Z,1
2018-11-22T00:08:49.482Z,0.9
2018-11-22T00:09:51.479Z,1
2018-11-22T00:10:53.498Z,1
2018-11-22T00:11:55.511Z,1
2018-11-22T00:12:57.525Z,0.9
2018-11-22T00:13:59.522Z,0.9
2018-11-22T00:15:01.547Z,0.9
2018-11-22T00:16:03.554Z,0.9
2018-11-22T00:17:05.564Z,1
2018-11-22T00:18:07.581Z,0.9
2018-11-22T00:19:09.583Z,0.9
2018-11-22T00:20:11.878Z,0.9
2018-11-22T00:21:13.887Z,0.9
2018-11-22T00:22:15.908Z,0.9
2018-11-22T00:23:18.289Z,0.9
2018-11-22T00:24:20.299Z,0.9
2018-11-22T00:25:22.613Z,0.8
2018-11-22T00:26:24.892Z,0.9
2018-11-22T00:27:27.300Z,0.9
2018-11-22T00:28:29.311Z,0.9
2018-11-22T00:29:31.314Z,0.9
2018-11-22T00:30:33.607Z,0.8
2018-11-22T00:31:35.630Z,0.9
2018-11-22T00:32:37.640Z,0.9
2018-11-22T00:33:39.652Z,0.9
2018-11-22T00:34:41.663Z,0.9
2018-11-22T00:35:43.662Z,0.9
2018-11-22T00:36:45.674Z,0.9
2018-11-22T00:37:47.695Z,0.9
2018-11-22T00:38:49.694Z,0.9
2018-11-22T00:39:51.713Z,0.9
2018-11-22T00:40:54.024Z,0.9
2018-11-22T00:41:56.344Z,0.9
2018-11-22T00:42:58.751Z,0.9
2018-11-22T00:44:01.057Z,0.9
2018-11-22T00:45:03.639Z,0.9
2018-11-22T00:46:05.644Z,0.9
2018-11-22T00:47:07.652Z,0.9
2018-11-22T00:48:09.673Z,0.9
2018-11-22T00:49:11.682Z,0.9
2018-11-22T00:50:14.077Z,0.9
2018-11-22T00:51:16.099Z,0.9
2018-11-22T00:52:18.100Z,0.8
2018-11-22T00:53:20.117Z,0.9
2018-11-22T00:54:22.123Z,0.9
2018-11-22T00:55:24.143Z,0.9
2018-11-22T00:56:26.144Z,0.8
2018-11-22T00:57:28.434Z,0.9
2018-11-22T00:58:30.447Z,0.9
2018-11-22T00:59:32.447Z,0.9
2018-11-22T01:00:34.470Z,0.9
2018-11-22T01:01:36.766Z,0.9
2018-11-22T01:02:38.774Z,0.9
2018-11-22T01:03:40.784Z,0.9
2018-11-22T01:04:42.802Z,0.9
2018-11-22T01:05:44.819Z,0.9
2018-11-22T01:06:47.116Z,0.8
2018-11-22T01:07:49.127Z,0.9
2018-11-22T01:08:51.120Z,0.8
2018-11-22T01:09:53.134Z,0.9
2018-11-22T01:10:55.534Z,0.8
2018-11-22T01:11:57.537Z,0.9
2018-11-22T01:12:59.556Z,0.8
2018-11-22T01:14:01.958Z,0.9
2018-11-22T01:15:03.969Z,0.8
2018-11-22T01:16:05.992Z,0.9
2018-11-22T01:17:07.998Z,0.9
2018-11-22T01:18:10.399Z,0.9
2018-11-22T01:19:12.685Z,0.9
2018-11-22T01:20:14.706Z,0.9
2018-11-22T01:21:16.704Z,0.9
2018-11-22T01:22:18.714Z,0.9
2018-11-22T01:23:20.730Z,0.8
2018-11-22T01:24:22.732Z,0.9
2018-11-22T01:25:24.753Z,0.9
2018-11-22T01:26:26.762Z,0.9
2018-11-22T01:27:28.778Z,0.9
2018-11-22T01:28:31.167Z,0.9
2018-11-22T01:29:33.188Z,0.9
2018-11-22T01:30:35.201Z,0.9
2018-11-22T01:31:37.204Z,0.9
2018-11-22T01:32:39.234Z,0.9
2018-11-22T01:33:41.230Z,0.9
2018-11-22T01:34:43.534Z,0.9
2018-11-22T01:35:45.858Z,0.9
2018-11-22T01:36:47.870Z,0.9
2018-11-22T01:37:49.871Z,0.9
2018-11-22T01:38:51.882Z,0.9
2018-11-22T01:39:54.201Z,0.9
2018-11-22T01:40:56.212Z,0.9
2018-11-22T01:41:58.579Z,0.9
2018-11-22T01:43:00.590Z,0.9
2018-11-22T01:44:02.600Z,0.9
2018-11-22T01:45:04.624Z,0.9
2018-11-22T01:46:06.633Z,0.9
2018-11-22T01:47:08.642Z,0.9
2018-11-22T01:48:10.653Z,1
2018-11-22T01:49:12.942Z,0.9
2018-11-22T01:50:14.957Z,0.9
2018-11-22T01:51:16.968Z,0.9
2018-11-22T01:52:18.981Z,0.9
2018-11-22T01:53:20.984Z,0.9
2018-11-22T01:54:23.002Z,0.9
2018-11-22T01:55:25.015Z,1
2018-11-22T01:56:27.022Z,0.9
2018-11-22T01:57:29.042Z,0.9
2018-11-22T01:58:31.045Z,1
2018-11-22T01:59:33.346Z,0.9
2018-11-22T02:00:35.354Z,0.9
2018-11-22T02:01:37.383Z,0.9
2018-11-22T02:02:39.386Z,0.9
2018-11-22T02:03:41.679Z,0.9
2018-11-22T02:04:43.690Z,0.9
2018-11-22T02:05:45.713Z,0.9
2018-11-22T02:06:47.718Z,0.9
2018-11-22T02:07:50.305Z,0.9
2018-11-22T02:08:52.321Z,0.9
2018-11-22T02:09:54.332Z,1
2018-11-22T02:10:56.332Z,0.9
2018-11-22T02:11:58.341Z,0.9
2018-11-22T02:13:00.355Z,0.9
2018-11-22T02:14:03.248Z,0.9
2018-11-22T02:15:05.554Z,0.9
2018-11-22T02:16:07.850Z,0.9
2018-11-22T02:17:09.853Z,1
2018-11-22T02:18:11.875Z,1
2018-11-22T02:19:13.883Z,0.9
2018-11-22T02:20:15.892Z,0.9
2018-11-22T02:21:18.202Z,0.9
2018-11-22T02:22:20.480Z,1
2018-11-22T02:23:22.498Z,0.9
2018-11-22T02:24:24.510Z,0.9
2018-11-22T02:25:26.530Z,0.9
2018-11-22T02:26:28.530Z,1
2018-11-22T02:27:30.553Z,0.9
2018-11-22T02:28:32.563Z,0.9
2018-11-22T02:29:34.575Z,0.9
2018-11-22T02:30:36.601Z,1
2018-11-22T02:31:38.897Z,0.9
2018-11-22T02:32:40.907Z,0.9
2018-11-22T02:33:43.192Z,1
2018-11-22T02:34:45.502Z,1
2018-11-22T02:35:47.501Z,0.9
2018-11-22T02:36:49.508Z,0.9
2018-11-22T02:37:51.526Z,0.9
2018-11-22T02:38:53.828Z,0.9
2018-11-22T02:39:55.847Z,0.9
2018-11-22T02:40:58.146Z,1
2018-11-22T02:42:00.253Z,1
2018-11-22T02:43:02.269Z,0.9
2018-11-22T02:44:04.583Z,1
2018-11-22T02:45:06.978Z,0.9
2018-11-22T02:46:08.996Z,1
2018-11-22T02:47:11.577Z,1
2018-11-22T02:48:13.865Z,1
2018-11-22T02:49:15.883Z,1
2018-11-22T02:50:18.285Z,1
2018-11-22T02:51:20.293Z,1
2018-11-22T02:52:22.315Z,1
2018-11-22T02:53:24.332Z,1
2018-11-22T02:54:26.910Z,1
2018-11-22T02:55:29.212Z,0.9
2018-11-22T02:56:31.221Z,1
2018-11-22T02:57:33.615Z,0.9
2018-11-22T02:58:35.925Z,0.9
2018-11-22T02:59:37.946Z,0.9
2018-11-22T03:00:39.949Z,1
2018-11-22T03:01:41.965Z,1
2018-11-22T03:02:44.256Z,1
2018-11-22T03:03:46.546Z,1
2018-11-22T03:04:48.567Z,1
2018-11-22T03:05:50.577Z,0.9
2018-11-22T03:06:52.879Z,1
2018-11-22T03:07:54.879Z,1
2018-11-22T03:08:57.188Z,0.9
2018-11-22T03:09:59.761Z,0.9
2018-11-22T03:11:01.776Z,1
2018-11-22T03:12:04.105Z,1
2018-11-22T03:13:06.109Z,0.9
2018-11-22T03:14:08.505Z,0.9
2018-11-22T03:15:10.521Z,1
2018-11-22T03:16:12.534Z,1
2018-11-22T03:17:14.537Z,1
2018-11-22T03:18:16.838Z,0.9
2018-11-22T03:19:18.840Z,0.9
2018-11-22T03:20:20.850Z,1
2018-11-22T03:21:23.149Z,0.9
2018-11-22T03:22:25.160Z,0.9
2018-11-22T03:23:27.175Z,0.9
2018-11-22T03:24:29.177Z,0.9
2018-11-22T03:25:31.196Z,1
2018-11-22T03:26:33.594Z,0.9
2018-11-22T03:27:35.887Z,0.9
2018-11-22T03:28:37.909Z,1
2018-11-22T03:29:39.916Z,0.9
2018-11-22T03:30:42.207Z,0.9
2018-11-22T03:31:44.214Z,0.9
2018-11-22T03:32:47.197Z,0.9
2018-11-22T03:33:49.770Z,1
2018-11-22T03:34:51.781Z,1
2018-11-22T03:35:53.793Z,1
2018-11-22T03:36:55.794Z,1
2018-11-22T03:37:57.813Z,1
2018-11-22T03:39:00.106Z,1
2018-11-22T03:40:02.522Z,1
2018-11-22T03:41:04.909Z,1
2018-11-22T03:42:07.214Z,1
2018-11-22T03:43:09.228Z,0.9
2018-11-22T03:44:11.234Z,0.9
2018-11-22T03:45:13.257Z,0.9
2018-11-22T03:46:15.541Z,1
2018-11-22T03:47:17.557Z,1
2018-11-22T03:48:19.572Z,1
2018-11-22T03:49:21.589Z,1
2018-11-22T03:50:23.589Z,1
2018-11-22T03:51:25.600Z,1
2018-11-22T03:52:27.611Z,1
2018-11-22T03:53:29.669Z,1
2018-11-22T03:54:31.688Z,1
2018-11-22T03:55:34.028Z,1
2018-11-22T03:56:36.051Z,1
2018-11-22T03:57:38.330Z,1
2018-11-22T03:58:40.347Z,1
2018-11-22T03:59:42.360Z,1
2018-11-22T04:00:44.373Z,0.9
2018-11-22T04:01:46.398Z,0.9
2018-11-22T04:02:48.406Z,0.9
2018-11-22T04:03:50.808Z,0.9
2018-11-22T04:04:53.092Z,0.9
2018-11-22T04:05:55.498Z,0.9
2018-11-22T04:06:57.496Z,0.9
2018-11-22T04:07:59.513Z,0.9
2018-11-22T04:09:01.834Z,0.9
2018-11-22T04:10:03.836Z,1
2018-11-22T04:11:06.529Z,1
2018-11-22T04:12:08.538Z,0.9
2018-11-22T04:13:10.554Z,0.9
2018-11-22T04:14:12.844Z,1
2018-11-22T04:15:15.466Z,0.9
2018-11-22T04:16:17.767Z,0.9
2018-11-22T04:17:20.056Z,0.9
2018-11-22T04:18:22.076Z,0.9
2018-11-22T04:19:24.078Z,0.9
2018-11-22T04:20:26.089Z,0.9
2018-11-22T04:21:28.108Z,0.9
2018-11-22T04:22:30.502Z,0.9
2018-11-22T04:23:32.801Z,0.9
2018-11-22T04:24:35.499Z,0.9
2018-11-22T04:25:37.890Z,0.9
2018-11-22T04:26:39.911Z,0.9
2018-11-22T04:27:42.213Z,0.8
2018-11-22T04:28:44.811Z,0.9
2018-11-22T04:29:47.119Z,0.9
2018-11-22T04:30:49.138Z,0.9
2018-11-22T04:31:51.149Z,0.9
2018-11-22T04:32:53.728Z,0.9
2018-11-22T04:33:55.739Z,0.8
2018-11-22T04:34:57.761Z,0.8
2018-11-22T04:36:00.053Z,0.9
2018-11-22T04:37:02.451Z,0.8
2018-11-22T04:38:04.461Z,0.9
2018-11-22T04:39:06.483Z,0.9
2018-11-22T04:40:08.486Z,0.9
2018-11-22T04:41:11.163Z,0.9
2018-11-22T04:42:13.841Z,0.9
2018-11-22T04:43:15.844Z,0.9
2018-11-22T04:44:18.251Z,0.9
2018-11-22T04:45:20.263Z,0.9
2018-11-22T04:46:22.281Z,0.8
2018-11-22T04:47:24.283Z,0.8
2018-11-22T04:48:26.691Z,0.8
2018-11-22T04:49:28.704Z,0.9
2018-11-22T04:50:31.097Z,0.8
2018-11-22T04:51:33.119Z,0.9
2018-11-22T04:52:35.114Z,0.8
2018-11-22T04:53:37.131Z,0.8
2018-11-22T04:54:39.148Z,0.9
2018-11-22T04:55:41.451Z,0.8
2018-11-22T04:56:43.453Z,0.8
2018-11-22T04:57:45.464Z,0.9
2018-11-22T04:58:47.476Z,0.9
2018-11-22T04:59:49.485Z,0.8
2018-11-22T05:00:51.508Z,0.8
2018-11-22T05:01:53.521Z,0.8
2018-11-22T05:02:55.823Z,0.9
2018-11-22T05:03:57.844Z,0.8
2018-11-22T05:04:59.851Z,0.8
2018-11-22T05:06:02.180Z,0.9
2018-11-22T05:07:04.193Z,0.8
2018-11-22T05:08:06.193Z,0.8
2018-11-22T05:09:08.218Z,0.8
2018-11-22T05:10:10.904Z,0.8
2018-11-22T05:11:13.229Z,0.8
2018-11-22T05:12:15.225Z,0.9
2018-11-22T05:13:17.253Z,0.9
2018-11-22T05:14:19.277Z,0.8
2018-11-22T05:15:21.273Z,0.8
2018-11-22T05:16:23.292Z,0.8
2018-11-22T05:17:25.295Z,0.8
2018-11-22T05:18:27.609Z,0.8
2018-11-22T05:19:29.613Z,0.8
2018-11-22T05:20:31.936Z,0.8
2018-11-22T05:21:33.937Z,0.9
2018-11-22T05:22:35.947Z,0.9
2018-11-22T05:23:37.962Z,0.8
2018-11-22T05:24:39.965Z,0.8
2018-11-22T05:25:42.273Z,0.8
2018-11-22T05:26:44.590Z,0.8
2018-11-22T05:27:46.597Z,0.8
2018-11-22T05:28:48.606Z,0.8
2018-11-22T05:29:50.631Z,0.7
2018-11-22T05:30:52.641Z,0.8
2018-11-22T05:31:54.652Z,0.8
2018-11-22T05:32:56.660Z,0.8
2018-11-22T05:33:58.660Z,0.8
2018-11-22T05:35:01.054Z,0.8
2018-11-22T05:36:03.386Z,0.8
2018-11-22T05:37:05.387Z,0.8
2018-11-22T05:38:07.789Z,0.8
2018-11-22T05:39:09.804Z,0.8
2018-11-22T05:40:11.815Z,0.8
2018-11-22T05:41:13.840Z,0.8
2018-11-22T05:42:15.851Z,0.8
2018-11-22T05:43:17.858Z,0.7
2018-11-22T05:44:19.861Z,0.7
2018-11-22T05:45:21.888Z,0.7
2018-11-22T05:46:23.889Z,0.8
2018-11-22T05:47:25.900Z,0.8
2018-11-22T05:48:27.914Z,0.8
2018-11-22T05:49:29.923Z,0.8
2018-11-22T05:50:31.923Z,0.8
2018-11-22T05:51:34.221Z,0.8
2018-11-22T05:52:36.225Z,0.8
2018-11-22T05:53:38.245Z,0.8
2018-11-22T05:54:40.244Z,0.8
2018-11-22T05:55:42.256Z,0.7
2018-11-22T05:56:44.269Z,0.8
2018-11-22T05:57:46.271Z,0.8
2018-11-22T05:58:48.291Z,0.8
2018-11-22T05:59:50.301Z,0.8
2018-11-22T06:00:52.309Z,0.8
2018-11-22T06:01:54.602Z,0.7
2018-11-22T06:02:56.622Z,0.7
2018-11-22T06:03:58.632Z,0.7
2018-11-22T06:05:00.645Z,0.7
2018-11-22T06:06:02.654Z,0.7
2018-11-22T06:07:04.657Z,0.7
2018-11-22T06:08:06.965Z,0.7
2018-11-22T06:09:08.981Z,0.7
2018-11-22T06:10:10.978Z,0.7
2018-11-22T06:11:12.996Z,0.8
2018-11-22T06:12:15.011Z,0.7
2018-11-22T06:13:17.684Z,0.8
2018-11-22T06:14:19.703Z,0.8
2018-11-22T06:15:21.709Z,0.8
2018-11-22T06:16:23.720Z,0.7
2018-11-22T06:17:25.731Z,0.7
2018-11-22T06:18:27.753Z,0.7
2018-11-22T06:19:30.043Z,0.7
2018-11-22T06:20:32.060Z,0.8
2018-11-22T06:21:34.066Z,0.8
2018-11-22T06:22:36.068Z,0.8
2018-11-22T06:23:38.091Z,0.7
2018-11-22T06:24:40.100Z,0.7
2018-11-22T06:25:42.501Z,0.7
2018-11-22T06:26:44.502Z,0.7
2018-11-22T06:27:46.517Z,0.7
2018-11-22T06:28:49.181Z,0.7
2018-11-22T06:29:51.323Z,0.7
2018-11-22T06:30:53.320Z,0.7
2018-11-22T06:31:55.338Z,0.7
2018-11-22T06:32:57.346Z,0.7
2018-11-22T06:33:59.353Z,0.7
2018-11-22T06:35:02.247Z,0.7
2018-11-22T06:36:04.271Z,0.7
2018-11-22T06:37:06.283Z,0.7
2018-11-22T06:38:08.297Z,0.7
2018-11-22T06:39:10.304Z,0.7
2018-11-22T06:40:12.694Z,0.8
2018-11-22T06:41:14.705Z,0.7
2018-11-22T06:42:17.105Z,0.7
2018-11-22T06:43:19.105Z,0.7
2018-11-22T06:44:21.119Z,0.7
2018-11-22T06:45:23.869Z,0.7
2018-11-22T06:46:25.144Z,0.7
2018-11-22T06:47:27.166Z,0.7
2018-11-22T06:48:29.174Z,0.7
2018-11-22T06:49:31.184Z,0.7
2018-11-22T06:50:33.576Z,0.7
2018-11-22T06:51:35.595Z,0.7
2018-11-22T06:52:37.595Z,0.7
2018-11-22T06:53:39.603Z,0.8
2018-11-22T06:54:41.613Z,0.7
2018-11-22T06:55:43.999Z,0.7
2018-11-22T06:56:46.019Z,0.8
2018-11-22T06:57:48.030Z,0.8
2018-11-22T06:58:50.256Z,0.8
2018-11-22T06:59:52.254Z,0.7
2018-11-22T07:00:54.289Z,0.8
2018-11-22T07:01:56.308Z,0.8
2018-11-22T07:02:58.603Z,0.8
2018-11-22T07:04:01.308Z,0.8
2018-11-22T07:05:03.317Z,0.8
2018-11-22T07:06:05.979Z,0.8
2018-11-22T07:07:07.995Z,0.8
2018-11-22T07:08:10.571Z,0.8
2018-11-22T07:09:12.586Z,0.8
2018-11-22T07:10:14.598Z,0.7
2018-11-22T07:11:16.609Z,0.8
2018-11-22T07:12:18.619Z,0.8
2018-11-22T07:13:20.618Z,0.9
2018-11-22T07:14:23.013Z,0.9
2018-11-22T07:15:25.034Z,0.9
2018-11-22T07:16:27.032Z,0.9
2018-11-22T07:17:29.045Z,0.8
2018-11-22T07:18:31.056Z,0.9
2018-11-22T07:19:33.071Z,0.8
2018-11-22T07:20:35.089Z,0.8
2018-11-22T07:21:37.098Z,0.8
2018-11-22T07:22:39.283Z,0.8
2018-11-22T07:23:41.114Z,0.9
2018-11-22T07:24:43.139Z,0.8
2018-11-22T07:25:45.140Z,0.8
2018-11-22T07:26:47.446Z,0.8
2018-11-22T07:27:49.457Z,0.8
2018-11-22T07:28:51.458Z,0.9
2018-11-22T07:29:53.481Z,0.8
2018-11-22T07:30:55.493Z,0.8
2018-11-22T07:31:57.514Z,0.8
2018-11-22T07:32:59.517Z,0.9
2018-11-22T07:34:01.549Z,0.9
2018-11-22T07:35:03.856Z,0.9
2018-11-22T07:36:05.862Z,0.9
2018-11-22T07:37:07.886Z,1
2018-11-22T07:38:09.889Z,0.9
2018-11-22T07:39:11.900Z,0.9
2018-11-22T07:40:13.920Z,1.1
2018-11-22T07:41:16.210Z,1
2018-11-22T07:42:18.210Z,1
2018-11-22T07:43:20.223Z,1
2018-11-22T07:44:22.234Z,1.1
2018-11-22T07:45:24.242Z,1
2018-11-22T07:46:26.264Z,0.9
2018-11-22T07:47:28.274Z,0.9
2018-11-22T07:48:30.281Z,0.9
2018-11-22T07:49:32.305Z,0.9
2018-11-22T07:50:34.603Z,0.8
2018-11-22T07:51:36.615Z,0.9
2018-11-22T07:52:38.634Z,0.9
2018-11-22T07:53:40.638Z,0.8
2018-11-22T07:54:42.656Z,0.9
2018-11-22T07:55:44.669Z,0.9
2018-11-22T07:56:46.687Z,0.9
2018-11-22T07:57:48.687Z,0.9
2018-11-22T07:58:50.709Z,0.9
2018-11-22T07:59:52.717Z,0.9
2018-11-22T08:00:54.733Z,0.9
2018-11-22T08:01:56.752Z,0.9
2018-11-22T08:02:59.139Z,0.9
2018-11-22T08:04:01.150Z,0.8
2018-11-22T08:05:03.159Z,0.8
2018-11-22T08:06:05.179Z,0.8
2018-11-22T08:07:07.178Z,0.9
2018-11-22T08:08:09.467Z,0.8
2018-11-22T08:09:11.484Z,0.9
2018-11-22T08:10:13.485Z,0.9
2018-11-22T08:11:15.785Z,0.9
2018-11-22T08:12:18.659Z,0.9
2018-11-22T08:13:20.094Z,0.8
2018-11-22T08:14:22.103Z,0.9
2018-11-22T08:15:24.127Z,0.9
2018-11-22T08:16:26.715Z,0.9
2018-11-22T08:17:28.728Z,0.9
2018-11-22T08:18:30.745Z,0.9
2018-11-22T08:19:32.746Z,0.9
2018-11-22T08:20:34.757Z,0.9
2018-11-22T08:21:39.644Z,0.8
2018-11-22T08:22:41.664Z,0.9
2018-11-22T08:23:43.666Z,0.8
2018-11-22T08:24:45.680Z,0.8
2018-11-22T08:25:47.973Z,0.9
2018-11-22T08:26:49.978Z,0.9
2018-11-22T08:27:51.992Z,0.9
2018-11-22T08:28:54.012Z,0.9
2018-11-22T08:29:56.415Z,0.9
2018-11-22T08:30:58.808Z,0.9
2018-11-22T08:32:01.123Z,0.9
2018-11-22T08:33:03.135Z,0.9
2018-11-22T08:34:05.147Z,0.9
2018-11-22T08:35:07.554Z,0.9
2018-11-22T08:36:09.944Z,0.9
2018-11-22T08:37:11.956Z,1
2018-11-22T08:38:14.010Z,1.1
2018-11-22T08:39:16.031Z,1.1
2018-11-22T08:40:18.032Z,1.1
2018-11-22T08:41:20.043Z,1.1
2018-11-22T08:42:22.059Z,1.2
2018-11-22T08:43:24.057Z,1.2
2018-11-22T08:44:26.079Z,1.1
2018-11-22T08:45:28.090Z,1.2
2018-11-22T08:46:30.093Z,1.2
2018-11-22T08:47:32.101Z,1.1
2018-11-22T08:48:34.427Z,1.2
2018-11-22T08:49:36.436Z,1.2
2018-11-22T08:50:38.445Z,1.1
2018-11-22T08:51:40.455Z,1.1
2018-11-22T08:52:42.457Z,1.2
2018-11-22T08:53:44.773Z,1.2
2018-11-22T08:54:46.794Z,1.3
2018-11-22T08:55:48.794Z,1.3
2018-11-22T08:56:50.812Z,1.2
2018-11-22T08:57:52.823Z,1.2
2018-11-22T08:58:54.837Z,1.2
2018-11-22T08:59:57.137Z,1.1
2018-11-22T09:00:59.153Z,1.2
2018-11-22T09:02:01.170Z,1.1
2018-11-22T09:03:03.187Z,1.1
2018-11-22T09:04:05.188Z,1.1
2018-11-22T09:05:07.514Z,1.1
2018-11-22T09:06:09.542Z,1.1
2018-11-22T09:07:11.567Z,1.1
2018-11-22T09:08:13.906Z,1.1
2018-11-22T09:09:15.930Z,1.1
2018-11-22T09:10:17.963Z,1.1
2018-11-22T09:11:19.996Z,1.1
2018-11-22T09:12:22.335Z,1.1
2018-11-22T09:13:24.740Z,1.1
2018-11-22T09:14:26.773Z,1.2
2018-11-22T09:15:32.801Z,1.3
2018-11-22T09:16:34.825Z,1.2
2018-11-22T09:17:36.867Z,1.2
2018-11-22T09:18:38.899Z,1.2
2018-11-22T09:19:40.929Z,1.3
2018-11-22T09:20:42.959Z,1.5
2018-11-22T09:21:44.997Z,1.5
2018-11-22T09:22:47.317Z,1.5
2018-11-22T09:23:49.353Z,1.4
2018-11-22T09:24:51.389Z,1.4
2018-11-22T09:25:53.796Z,1.4
2018-11-22T09:26:55.839Z,1.3
2018-11-22T09:27:57.882Z,1.2
2018-11-22T09:28:59.897Z,1.2
2018-11-22T09:30:02.238Z,1.3
2018-11-22T09:31:04.606Z,1.2
2018-11-22T09:32:06.633Z,1.1
2018-11-22T09:33:09.008Z,1.1
2018-11-22T09:34:11.329Z,1.2
2018-11-22T09:35:14.315Z,1.2
2018-11-22T09:36:16.535Z,1.3
2018-11-22T09:37:19.223Z,1.4
2018-11-22T09:38:21.271Z,1.3
2018-11-22T09:39:23.296Z,1.4
2018-11-22T09:40:25.709Z,1.3
2018-11-22T09:41:27.758Z,1.3
2018-11-22T09:42:29.782Z,1.3
2018-11-22T09:43:31.824Z,1.3
2018-11-22T09:44:33.850Z,1.3
2018-11-22T09:45:35.906Z,1.3
2018-11-22T09:46:38.512Z,1.3
2018-11-22T09:47:40.822Z,1.3
2018-11-22T09:48:45.076Z,1.4
2018-11-22T09:49:48.404Z,1.4
2018-11-22T09:50:50.443Z,1.4
2018-11-22T09:51:52.477Z,1.4
2018-11-22T09:52:54.502Z,1.4
2018-11-22T09:53:56.518Z,1.4
2018-11-22T09:54:58.554Z,1.4
2018-11-22T09:56:00.581Z,1.3
2018-11-22T09:57:02.621Z,1.4
2018-11-22T09:58:04.678Z,1.4
2018-11-22T09:59:07.597Z,1.4
2018-11-22T10:00:10.051Z,1.5
2018-11-22T10:01:12.383Z,1.4
2018-11-22T10:02:14.680Z,1.5
2018-11-22T10:03:18.003Z,1.5
2018-11-22T10:04:20.047Z,1.5
2018-11-22T10:05:24.581Z,1.4
2018-11-22T10:06:27.170Z,1.4
2018-11-22T10:07:29.192Z,1.5
2018-11-22T10:08:32.484Z,1.4
2018-11-22T10:09:34.968Z,1.4
2018-11-22T10:10:37.307Z,1.5
2018-11-22T10:11:39.616Z,1.5
2018-11-22T10:12:42.946Z,1.5
2018-11-22T10:13:45.568Z,1.5
2018-11-22T10:14:47.587Z,1.5
2018-11-22T10:15:49.628Z,1.3
2018-11-22T10:16:52.173Z,1.3
2018-11-22T10:17:54.265Z,1.4
2018-11-22T10:18:56.274Z,1.4
2018-11-22T10:19:58.314Z,1.5
2018-11-22T10:21:00.342Z,1.5
2018-11-22T10:22:03.036Z,1.6
2018-11-22T10:23:05.073Z,1.6
2018-11-22T10:24:08.251Z,1.6
2018-11-22T10:25:10.671Z,1.6
2018-11-22T10:26:12.711Z,1.5
2018-11-22T10:27:15.337Z,1.5
2018-11-22T10:28:17.361Z,1.5
2018-11-22T10:29:21.264Z,1.5
2018-11-22T10:30:26.365Z,1.6
2018-11-22T10:31:29.355Z,1.5
2018-11-22T10:32:31.749Z,1.5
2018-11-22T10:33:34.161Z,1.5
2018-11-22T10:34:36.468Z,1.5
2018-11-22T10:35:38.527Z,1.5
2018-11-22T10:36:40.554Z,1.5
2018-11-22T10:37:43.936Z,1.5
2018-11-22T10:38:46.166Z,1.5
2018-11-22T10:39:48.195Z,1.5
2018-11-22T10:40:50.236Z,1.5
2018-11-22T10:41:52.272Z,1.5
2018-11-22T10:42:54.620Z,1.5
2018-11-22T10:43:56.630Z,1.5
2018-11-22T10:44:58.673Z,1.6
2018-11-22T10:46:00.701Z,1.5
2018-11-22T10:47:03.395Z,1.4
2018-11-22T10:48:05.439Z,1.5
2018-11-22T10:49:08.248Z,1.5
2018-11-22T10:50:10.562Z,1.4
2018-11-22T10:51:12.591Z,1.5
2018-11-22T10:52:14.642Z,1.5
2018-11-22T10:53:17.056Z,1.4
2018-11-22T10:54:19.096Z,1.4
2018-11-22T10:55:21.127Z,1.4
2018-11-22T10:56:23.168Z,1.4
2018-11-22T10:57:25.468Z,1.4
2018-11-22T10:58:27.499Z,1.4
2018-11-22T10:59:29.820Z,1.4
2018-11-22T11:00:32.139Z,1.4
2018-11-22T11:01:34.162Z,1.4
2018-11-22T11:02:36.197Z,1.3
2018-11-22T11:03:38.506Z,1.4
2018-11-22T11:04:40.815Z,1.4
2018-11-22T11:05:43.137Z,1.4
2018-11-22T11:06:45.438Z,1.4
2018-11-22T11:07:47.454Z,1.4
2018-11-22T11:08:50.370Z,1.4
2018-11-22T11:09:52.443Z,1.4
2018-11-22T11:10:54.471Z,1.5
2018-11-22T11:11:56.506Z,1.5
2018-11-22T11:12:58.817Z,1.5
2018-11-22T11:14:00.857Z,1.5
2018-11-22T11:15:03.350Z,1.5
2018-11-22T11:16:05.675Z,1.4
2018-11-22T11:17:07.686Z,1.3
2018-11-22T11:18:10.420Z,1.3
2018-11-22T11:19:12.452Z,1.3
2018-11-22T11:20:14.480Z,1.3
2018-11-22T11:21:16.529Z,1.4
2018-11-22T11:22:18.839Z,1.4
2018-11-22T11:23:20.886Z,1.4
2018-11-22T11:24:24.347Z,1.4
2018-11-22T11:25:27.206Z,1.4
2018-11-22T11:26:29.623Z,1.3
2018-11-22T11:27:31.657Z,1.3
2018-11-22T11:28:33.683Z,1.3
2018-11-22T11:29:35.702Z,1.3
2018-11-22T11:30:37.739Z,1.3
2018-11-22T11:31:39.781Z,1.3
2018-11-22T11:32:42.103Z,1.3
2018-11-22T11:33:44.140Z,1.3
2018-11-22T11:34:46.501Z,1.3
2018-11-22T11:35:48.563Z,1.3
2018-11-22T11:36:50.892Z,1.3
2018-11-22T11:37:52.927Z,1.3
2018-11-22T11:38:55.330Z,1.2
2018-11-22T11:40:02.664Z,1.2
2018-11-22T11:41:04.691Z,1.2
2018-11-22T11:42:06.743Z,1.2
2018-11-22T11:43:09.055Z,1.3
2018-11-22T11:44:11.084Z,1.3
2018-11-22T11:45:13.120Z,1.2
2018-11-22T11:46:15.137Z,1.2
2018-11-22T11:47:17.454Z,1.2
2018-11-22T11:48:19.493Z,1.3
2018-11-22T11:49:21.530Z,1.3
2018-11-22T11:50:23.545Z,1.3
2018-11-22T11:51:25.873Z,1.4
2018-11-22T11:52:28.188Z,1.4
2018-11-22T11:53:42.671Z,1.4
2018-11-22T11:54:44.984Z,1.3
2018-11-22T11:55:47.281Z,1.3
2018-11-22T11:56:49.323Z,1.3
2018-11-22T11:57:51.348Z,1.2
2018-11-22T11:58:54.077Z,1.3
2018-11-22T11:59:56.480Z,1.3
2018-11-22T12:00:58.510Z,1.3
2018-11-22T12:02:00.542Z,1.3
2018-11-22T12:03:03.232Z,1.3
2018-11-22T12:04:05.275Z,1.3
2018-11-22T12:05:07.309Z,1.3
2018-11-22T12:06:09.343Z,1.3
2018-11-22T12:07:11.670Z,1.3
2018-11-22T12:08:13.729Z,1.3
2018-11-22T12:09:15.798Z,1.3
2018-11-22T12:10:17.907Z,1.3
2018-11-22T12:11:19.927Z,1.3
2018-11-22T12:12:21.967Z,1.3
2018-11-22T12:13:24.375Z,1.3
2018-11-22T12:14:26.684Z,1.3
2018-11-22T12:15:28.729Z,1.3
2018-11-22T12:16:31.029Z,1.3
2018-11-22T12:17:33.062Z,1.3
2018-11-22T12:18:38.815Z,1.3
2018-11-22T12:19:40.843Z,1.3
2018-11-22T12:20:42.879Z,1.3
2018-11-22T12:21:45.594Z,1.2
2018-11-22T12:22:47.914Z,1.3
2018-11-22T12:23:49.927Z,1.2
2018-11-22T12:24:52.631Z,1.2
2018-11-22T12:25:54.666Z,1.2
2018-11-22T12:26:56.977Z,1.2
2018-11-22T12:27:59.016Z,1.2
2018-11-22T12:29:01.315Z,1.2
2018-11-22T12:30:03.649Z,1.2
2018-11-22T12:31:08.149Z,1.2
2018-11-22T12:32:10.501Z,1.2
2018-11-22T12:33:12.536Z,1.2
2018-11-22T12:34:14.964Z,1.2
2018-11-22T12:35:17.008Z,1.2
2018-11-22T12:36:19.707Z,1.2
2018-11-22T12:37:22.321Z,1.1
2018-11-22T12:38:24.353Z,1.1
2018-11-22T12:39:26.656Z,1.2
2018-11-22T12:40:28.969Z,1.3
2018-11-22T12:41:31.398Z,1.3
2018-11-22T12:42:33.818Z,1.3
2018-11-22T12:43:35.856Z,1.3
2018-11-22T12:44:38.181Z,1.3
2018-11-22T12:45:40.485Z,1.2
2018-11-22T12:46:42.531Z,1.2
2018-11-22T12:47:45.239Z,1.2
2018-11-22T12:48:47.265Z,1.2
2018-11-22T12:49:49.295Z,1.2
2018-11-22T12:50:51.330Z,1.2
2018-11-22T12:51:53.362Z,1.2
2018-11-22T12:52:55.407Z,1.1
2018-11-22T12:53:57.433Z,1.2
2018-11-22T12:54:59.459Z,1.2
2018-11-22T12:56:01.762Z,1.1
2018-11-22T12:57:04.098Z,1.1
2018-11-22T12:58:06.472Z,1.1
2018-11-22T12:59:08.525Z,1.1
2018-11-22T13:00:10.567Z,1
2018-11-22T13:01:13.137Z,1
2018-11-22T13:02:20.562Z,1.1
2018-11-22T13:03:22.980Z,1.1
2018-11-22T13:04:25.304Z,1.1
2018-11-22T13:05:27.321Z,1
2018-11-22T13:06:29.943Z,1
2018-11-22T13:07:31.980Z,1
2018-11-22T13:08:34.575Z,1.1
2018-11-22T13:09:36.620Z,1.1
2018-11-22T13:10:38.922Z,1
2018-11-22T13:11:47.558Z,1
2018-11-22T13:12:50.449Z,1
2018-11-22T13:13:52.778Z,1
2018-11-22T13:14:54.816Z,1.1
2018-11-22T13:15:57.139Z,1
2018-11-22T13:16:59.209Z,1.1
2018-11-22T13:18:01.817Z,1.1
2018-11-22T13:19:04.417Z,1.1
2018-11-22T13:20:06.441Z,1.1
2018-11-22T13:21:08.469Z,1.1
2018-11-22T13:22:10.516Z,1
2018-11-22T13:23:12.541Z,1
2018-11-22T13:24:14.580Z,1
2018-11-22T13:25:16.662Z,1
2018-11-22T13:26:18.708Z,1
2018-11-22T13:27:20.732Z,1
2018-11-22T13:28:23.049Z,1
2018-11-22T13:29:25.452Z,1
2018-11-22T13:30:28.082Z,1
2018-11-22T13:31:30.491Z,1
2018-11-22T13:32:32.542Z,1
2018-11-22T13:33:34.872Z,1
2018-11-22T13:34:37.235Z,1
2018-11-22T13:35:39.576Z,1.1
2018-11-22T13:36:42.283Z,1.1
2018-11-22T13:37:44.596Z,1
2018-11-22T13:38:47.381Z,1
2018-11-22T13:39:49.426Z,1
2018-11-22T13:40:51.745Z,1
2018-11-22T13:41:53.773Z,0.9
2018-11-22T13:42:56.088Z,0.9
2018-11-22T13:43:58.494Z,0.9
2018-11-22T13:45:00.532Z,0.9
2018-11-22T13:46:03.196Z,0.9
2018-11-22T13:47:05.520Z,0.8
2018-11-22T13:48:07.548Z,0.8
2018-11-22T13:49:10.162Z,0.9
2018-11-22T13:50:12.194Z,0.8
2018-11-22T13:51:14.218Z,0.8
2018-11-22T13:52:16.259Z,0.9
2018-11-22T13:53:21.728Z,0.9
2018-11-22T13:54:24.036Z,0.9
2018-11-22T13:55:26.131Z,0.9
2018-11-22T13:56:28.844Z,0.8
2018-11-22T13:57:30.872Z,0.8
2018-11-22T13:58:33.682Z,0.8
2018-11-22T13:59:35.705Z,0.8
2018-11-22T14:00:37.746Z,0.8
2018-11-22T14:01:40.074Z,0.8
2018-11-22T14:02:42.112Z,0.8
2018-11-22T14:03:44.158Z,0.8
2018-11-22T14:04:46.177Z,0.7
2018-11-22T14:05:48.597Z,0.7
2018-11-22T14:06:50.640Z,0.7
2018-11-22T14:07:53.061Z,0.8
2018-11-22T14:08:55.405Z,0.7
2018-11-22T14:09:57.436Z,0.7
2018-11-22T14:11:00.169Z,0.7
2018-11-22T14:12:02.463Z,0.6
2018-11-22T14:13:05.474Z,0.7
2018-11-22T14:14:07.506Z,0.6
2018-11-22T14:15:09.535Z,0.6
2018-11-22T14:16:11.879Z,0.6
2018-11-22T14:17:13.905Z,0.7
2018-11-22T14:18:15.951Z,0.7
2018-11-22T14:19:17.998Z,0.7
2018-11-22T14:20:20.395Z,0.6
2018-11-22T14:21:22.806Z,0.6
2018-11-22T14:22:24.836Z,0.7
2018-11-22T14:23:27.420Z,0.7
2018-11-22T14:24:29.725Z,0.7